SLAM7: Spring River at La Russell, MO

                                SHEF ID:       SLAM7     Spring River at La Russell, MO
STATION TYPE:

STAGE RIV-FLOW
ft cfs
Ccp-Rev Ccp-Rev
(America/Chicago)
07/05 00:00 1.99 189
07/05 01:00 2.10 217
07/05 02:00 2.54 344
07/05 03:00 3.75 838
07/05 04:00 5.02 1576
07/05 05:00 5.89 2209
07/05 06:00 6.30 2542
07/05 07:00 6.46 2678
07/05 08:00 6.54 2747
07/05 09:00 6.53 2738
07/05 10:00 6.46 2678
07/05 11:00 6.24 2491
07/05 12:00 5.86 2185
07/05 13:00 5.43 1862
07/05 14:00 4.99 1556
07/05 15:00 4.58 1295
07/05 16:00 4.21 1080
07/05 17:00 3.92 924
07/05 18:00 3.69 809
07/05 19:00 3.51 723
07/05 20:00 3.36 656
07/05 21:00 3.24 604
07/05 22:00 3.15 567
07/05 23:00 3.07 535
Data processed at Mon 06Jul2026 04:40 GMT

NOTICE: If you are parsing this page

Please convert to using our Data API. Starting early 2026 we will be migrating to: https://water.usace.army.mil with modern pages rendered in JavaScript. When this migration completes you will no longer be able to scrape this page! CWMSDataAPI (CDA)

Timeseries IDs (TSIDs)

TSIDs used from left to right in the data table
LARU.Stage.Inst.1Hour.0.Ccp-Rev
LARU.Flow.Inst.1Hour.0.Ccp-Rev

                            

All information presented herein is the property of the government of the United States of America and may be revised or deleted at any time without prior notice. Dissemination of this information without the expressed written consent of the Public Affairs Office, Tulsa District U.S. Army Corps of Engineers is strictly prohibited. These data are gathered electronically and, as presented, have NOT undergone any form of quality control. These data are NOT guaranteed to be valid or correct.